createdAt,value
2024-05-09T00:03:03.110Z,99073.03
2024-05-09T00:08:07.054Z,99067.47
2024-05-09T00:13:11.314Z,99067.81
2024-05-09T00:18:14.670Z,99071.09
2024-05-09T00:23:36.245Z,99087.19
2024-05-09T00:28:39.784Z,99072.47
2024-05-09T00:33:43.279Z,99073.16
2024-05-09T00:38:47.952Z,99072.00
2024-05-09T00:43:51.238Z,99065.38
2024-05-09T00:48:54.647Z,99063.66
2024-05-09T00:53:58.263Z,99049.41
2024-05-09T00:59:01.547Z,99058.13
2024-05-09T01:04:05.149Z,99059.09
2024-05-09T01:09:08.444Z,99062.38
2024-05-09T01:14:11.638Z,99067.81
2024-05-09T01:19:26.993Z,99062.38
2024-05-09T01:24:30.183Z,99065.03
2024-05-09T01:29:33.775Z,99061.84
2024-05-09T01:34:36.937Z,99059.13
2024-05-09T01:39:40.198Z,99059.19
2024-05-09T01:44:47.180Z,99058.88
2024-05-09T01:49:50.456Z,99063.25
2024-05-09T01:54:53.641Z,99070.88
2024-05-09T01:59:56.895Z,99064.31
2024-05-09T02:05:00.515Z,99074.94
2024-05-09T02:10:10.820Z,99074.94
2024-05-09T02:15:19.300Z,99069.09
2024-05-09T02:20:30.709Z,99077.53
2024-05-09T02:25:39.111Z,99076.22
2024-05-09T02:30:42.820Z,99076.06
2024-05-09T02:35:45.973Z,99075.22
2024-05-09T02:40:49.106Z,99093.16
2024-05-09T02:45:52.155Z,99094.25
2024-05-09T02:50:55.357Z,99091.47
2024-05-09T02:55:58.556Z,99102.56
2024-05-09T03:01:02.005Z,99105.03
2024-05-09T03:06:05.371Z,99108.13
2024-05-09T03:11:08.700Z,99112.09
2024-05-09T03:16:13.395Z,99113.25
2024-05-09T03:21:16.422Z,99111.25
2024-05-09T03:26:19.801Z,99115.03
2024-05-09T03:31:23.628Z,99113.94
2024-05-09T03:36:26.768Z,99125.53
2024-05-09T03:41:30.157Z,99122.75
2024-05-09T03:46:38.190Z,99124.13
2024-05-09T03:51:41.425Z,99139.31
2024-05-09T03:56:44.619Z,99123.19
2024-05-09T04:01:47.859Z,99160.50
2024-05-09T04:06:51.268Z,99160.13
2024-05-09T04:11:54.536Z,99160.97
2024-05-09T04:16:57.810Z,99145.41
2024-05-09T04:22:00.814Z,99132.72
2024-05-09T04:27:04.102Z,99150.38
2024-05-09T04:32:08.256Z,99169.44
2024-05-09T04:37:11.577Z,99164.59
2024-05-09T04:42:14.739Z,99164.81
2024-05-09T04:47:17.922Z,99187.22
2024-05-09T04:52:21.177Z,99171.72
2024-05-09T04:57:24.176Z,99172.13
2024-05-09T05:02:27.337Z,99189.06
2024-05-09T05:07:30.561Z,99203.94
2024-05-09T05:12:51.917Z,99206.94
2024-05-09T05:17:55.499Z,99224.44
2024-05-09T05:22:58.692Z,99238.94
2024-05-09T05:28:01.933Z,99246.06
2024-05-09T05:33:07.098Z,99227.13
2024-05-09T05:38:11.506Z,99248.22
2024-05-09T05:43:19.231Z,99256.28
2024-05-09T05:48:28.592Z,99255.16
2024-05-09T05:53:31.682Z,99284.75
2024-05-09T05:58:34.727Z,99266.88
2024-05-09T06:03:38.363Z,99290.59
2024-05-09T06:08:41.695Z,99274.97
2024-05-09T06:13:44.876Z,99274.44
2024-05-09T06:18:48.262Z,99306.34
2024-05-09T06:23:51.439Z,99288.97
2024-05-09T06:28:54.872Z,99306.50
2024-05-09T06:33:58.683Z,99295.09
2024-05-09T06:39:01.896Z,99309.50
2024-05-09T06:44:05.336Z,99314.75
2024-05-09T06:49:09.907Z,99301.66
2024-05-09T06:54:13.138Z,99293.69
2024-05-09T06:59:16.775Z,99305.31
2024-05-09T07:04:20.351Z,99288.69
2024-05-09T07:09:23.508Z,99307.50
2024-05-09T07:14:26.721Z,99307.47
2024-05-09T07:19:30.187Z,99312.50
2024-05-09T07:24:33.490Z,99326.66
2024-05-09T07:29:38.677Z,99319.34
2024-05-09T07:34:42.614Z,99347.88
2024-05-09T07:39:45.820Z,99312.53
2024-05-09T07:45:29.539Z,99324.00
2024-05-09T07:55:37.771Z,99351.69
2024-05-09T08:00:41.045Z,99362.72
2024-05-09T08:05:44.426Z,99395.91
2024-05-09T08:10:47.709Z,99387.34
2024-05-09T08:15:52.209Z,99378.66
2024-05-09T08:20:55.825Z,99368.22
2024-05-09T08:26:00.180Z,99353.81
2024-05-09T08:31:06.723Z,99338.50
2024-05-09T08:36:10.932Z,99351.50
2024-05-09T08:41:17.044Z,99366.13
2024-05-09T08:46:20.343Z,99384.34
2024-05-09T08:51:23.599Z,99365.81
2024-05-09T08:56:28.778Z,99361.94
2024-05-09T09:01:34.169Z,99359.63
2024-05-09T09:06:40.466Z,99360.84
2024-05-09T09:11:43.618Z,99354.66
2024-05-09T09:16:46.996Z,99352.38
2024-05-09T09:21:50.274Z,99358.84
2024-05-09T09:26:53.370Z,99349.53
2024-05-09T09:32:04.824Z,99353.53
2024-05-09T09:37:11.562Z,99359.63
2024-05-09T09:42:18.362Z,99366.56
2024-05-09T09:47:23.286Z,99338.97
2024-05-09T09:52:27.517Z,99363.34
2024-05-09T09:57:33.928Z,99361.53
2024-05-09T10:02:37.095Z,99336.16
2024-05-09T10:07:52.805Z,99398.41
2024-05-09T10:13:09.010Z,99335.59
2024-05-09T10:18:13.244Z,99329.13
2024-05-09T10:23:28.120Z,99367.44
2024-05-09T10:28:33.234Z,99340.97
2024-05-09T10:33:40.052Z,99351.16
2024-05-09T10:38:45.136Z,99350.53
2024-05-09T10:43:49.271Z,99339.69
2024-05-09T10:48:52.706Z,99349.09
2024-05-09T10:53:58.067Z,99332.78
2024-05-09T10:59:04.358Z,99368.13
2024-05-09T11:04:08.852Z,99381.72
2024-05-09T11:09:12.813Z,99401.69
2024-05-09T11:14:17.690Z,99397.16
2024-05-09T11:19:21.109Z,99395.28
2024-05-09T11:24:24.456Z,99410.56
2024-05-09T11:29:45.024Z,99449.09
2024-05-09T11:34:48.085Z,99459.34
2024-05-09T11:39:51.705Z,99467.88
2024-05-09T11:44:54.744Z,99464.91
2024-05-09T11:49:58.282Z,99478.44
2024-05-09T11:55:03.157Z,99498.06
2024-05-09T12:00:09.614Z,99486.53
2024-05-09T12:05:15.128Z,99480.81
2024-05-09T12:10:22.310Z,99490.50
2024-05-09T12:15:29.240Z,99462.91
2024-05-09T12:20:38.416Z,99467.44
2024-05-09T12:25:43.327Z,99469.28
2024-05-09T12:30:46.934Z,99472.78
2024-05-09T12:35:51.139Z,99473.06
2024-05-09T12:40:55.411Z,99468.50
2024-05-09T12:45:58.931Z,99474.81
2024-05-09T12:51:02.175Z,99465.69
2024-05-09T12:56:07.204Z,99475.25
2024-05-09T13:01:12.096Z,99475.53
2024-05-09T13:06:15.506Z,99534.75
2024-05-09T13:11:18.858Z,99521.47
2024-05-09T13:16:40.651Z,99543.56
2024-05-09T13:21:44.162Z,99580.31
2024-05-09T13:26:47.575Z,99575.03
2024-05-09T13:31:51.696Z,99582.53
2024-05-09T13:36:55.059Z,99596.25
2024-05-09T13:41:58.669Z,99558.00
2024-05-09T13:47:02.204Z,99556.56
2024-05-09T13:52:05.885Z,99536.31
2024-05-09T13:57:09.158Z,99533.72
2024-05-09T14:02:12.414Z,99529.66
2024-05-09T14:07:16.042Z,99530.75
2024-05-09T14:12:19.242Z,99535.66
2024-05-09T14:17:22.624Z,99531.34
2024-05-09T14:22:25.856Z,99535.81
2024-05-09T14:27:30.028Z,99532.25
2024-05-09T14:32:33.638Z,99516.88
2024-05-09T14:37:39.367Z,99528.75
2024-05-09T14:42:43.368Z,99525.97
2024-05-09T14:47:46.854Z,99536.09
2024-05-09T14:52:50.169Z,99537.56
2024-05-09T14:57:53.620Z,99541.34
2024-05-09T15:02:57.007Z,99547.47
2024-05-09T15:08:00.382Z,99563.34
2024-05-09T15:13:04.799Z,99574.13
2024-05-09T15:18:11.485Z,99592.16
2024-05-09T15:23:14.772Z,99574.97
2024-05-09T15:28:18.569Z,99556.63
2024-05-09T15:33:21.917Z,99562.28
2024-05-09T15:38:26.682Z,99554.13
2024-05-09T15:43:30.721Z,99556.13
2024-05-09T15:48:34.512Z,99553.09
2024-05-09T15:53:37.837Z,99543.69
2024-05-09T15:58:40.963Z,99543.00
2024-05-09T16:03:44.428Z,99543.53
2024-05-09T16:08:47.761Z,99546.25
2024-05-09T16:13:51.000Z,99547.44
2024-05-09T16:18:54.121Z,99545.00
2024-05-09T16:23:57.223Z,99541.22
2024-05-09T16:29:00.556Z,99540.66
2024-05-09T16:34:04.046Z,99544.00
2024-05-09T16:39:07.472Z,99548.72
2024-05-09T16:44:11.117Z,99548.44
2024-05-09T16:49:14.269Z,99556.78
2024-05-09T16:54:17.527Z,99558.34
2024-05-09T16:59:22.223Z,99564.63
2024-05-09T17:04:25.545Z,99573.63
2024-05-09T17:09:28.662Z,99569.72
2024-05-09T17:14:50.607Z,99576.00
2024-05-09T17:19:54.158Z,99572.75
2024-05-09T17:24:57.471Z,99575.22
2024-05-09T17:30:01.795Z,99574.81
2024-05-09T17:35:07.258Z,99588.94
2024-05-09T17:40:16.913Z,99579.00
2024-05-09T17:45:21.549Z,99593.91
2024-05-09T17:50:31.489Z,99598.28
2024-05-09T17:55:39.386Z,99590.06
2024-05-09T18:00:43.079Z,99589.53
2024-05-09T18:05:46.532Z,99594.44
2024-05-09T18:15:53.255Z,99592.53
2024-05-09T18:20:56.576Z,99599.28
2024-05-09T18:25:59.895Z,99597.91
2024-05-09T18:31:03.168Z,99595.50
2024-05-09T18:36:06.788Z,99607.25
2024-05-09T18:41:09.988Z,99607.25
2024-05-09T18:46:13.909Z,99605.69
2024-05-09T18:51:17.406Z,99605.28
2024-05-09T18:56:20.715Z,99615.38
2024-05-09T19:01:23.891Z,99617.25
2024-05-09T19:06:27.228Z,99619.47
2024-05-09T19:11:31.034Z,99622.78
2024-05-09T19:16:35.285Z,99624.34
2024-05-09T19:21:42.140Z,99636.66
2024-05-09T19:26:45.899Z,99627.81
2024-05-09T19:31:49.155Z,99628.81
2024-05-09T19:36:52.914Z,99640.34
2024-05-09T19:41:56.340Z,99649.41
2024-05-09T19:46:59.680Z,99659.50
2024-05-09T19:52:02.998Z,99661.28
2024-05-09T19:57:06.258Z,99660.06
2024-05-09T20:02:09.528Z,99669.47
2024-05-09T20:07:13.247Z,99661.06
2024-05-09T20:12:16.478Z,99659.41
2024-05-09T20:17:19.651Z,99668.81
2024-05-09T20:22:22.826Z,99666.28
2024-05-09T20:27:25.922Z,99664.19
2024-05-09T20:32:29.236Z,99660.88
2024-05-09T20:37:32.433Z,99662.41
2024-05-09T20:42:35.579Z,99661.53
2024-05-09T20:47:39.376Z,99683.97
2024-05-09T20:52:42.519Z,99674.69
2024-05-09T20:57:45.715Z,99679.97
2024-05-09T21:02:49.039Z,99677.44
2024-05-09T21:07:52.155Z,99679.00
2024-05-09T21:12:55.231Z,99680.44
2024-05-09T21:17:58.693Z,99688.63
2024-05-09T21:23:02.695Z,99674.91
2024-05-09T21:28:06.411Z,99687.06
2024-05-09T21:33:11.678Z,99693.25
2024-05-09T21:38:34.862Z,99691.25
2024-05-09T21:43:38.539Z,99702.19
2024-05-09T21:48:42.046Z,99694.56
2024-05-09T21:53:45.356Z,99692.25
2024-05-09T21:58:48.697Z,99680.88
2024-05-09T22:03:51.955Z,99696.44
2024-05-09T22:08:55.157Z,99688.03
2024-05-09T22:13:58.146Z,99693.00
2024-05-09T22:19:01.266Z,99686.94
2024-05-09T22:24:04.590Z,99693.75
2024-05-09T22:29:07.877Z,99684.97
2024-05-09T22:34:11.061Z,99685.59
2024-05-09T22:39:14.174Z,99684.63
2024-05-09T22:44:17.222Z,99695.97
2024-05-09T22:49:20.865Z,99698.28
2024-05-09T22:54:23.960Z,99683.06
2024-05-09T22:59:29.517Z,99689.69
2024-05-09T23:04:32.891Z,99705.81
2024-05-09T23:09:36.049Z,99702.06
2024-05-09T23:14:39.394Z,99695.56
2024-05-09T23:19:43.219Z,99685.72
2024-05-09T23:24:47.463Z,99675.00
2024-05-09T23:29:50.515Z,99669.25
2024-05-09T23:34:53.784Z,99664.75
2024-05-09T23:39:57.079Z,99661.00
2024-05-09T23:45:00.123Z,99649.63
2024-05-09T23:50:06.708Z,99646.00
2024-05-09T23:55:11.877Z,99646.06
